createdAt,value
2023-05-08T00:00:02.102Z,11.90
2023-05-08T00:01:04.224Z,7.72
2023-05-08T00:02:06.434Z,8.13
2023-05-08T00:03:08.715Z,6.88
2023-05-08T00:04:11.187Z,8.57
2023-05-08T00:05:13.548Z,7.88
2023-05-08T00:06:15.673Z,9.75
2023-05-08T00:07:17.785Z,8.55
2023-05-08T00:08:19.858Z,8.80
2023-05-08T00:09:21.940Z,8.10
2023-05-08T00:10:24.044Z,8.00
2023-05-08T00:11:26.125Z,9.38
2023-05-08T00:12:28.221Z,9.25
2023-05-08T00:13:30.341Z,8.48
2023-05-08T00:14:32.394Z,8.75
2023-05-08T00:15:36.397Z,8.32
2023-05-08T00:16:38.532Z,8.20
2023-05-08T00:17:40.930Z,9.10
2023-05-08T00:18:43.140Z,11.15
2023-05-08T00:19:45.364Z,8.18
2023-05-08T00:20:47.513Z,8.18
2023-05-08T00:21:49.603Z,9.25
2023-05-08T00:22:51.701Z,7.68
2023-05-08T00:23:53.792Z,9.38
2023-05-08T00:24:55.838Z,8.30
2023-05-08T00:25:58.031Z,9.80
2023-05-08T00:27:00.149Z,9.05
2023-05-08T00:28:02.283Z,8.57
2023-05-08T00:29:06.491Z,10.75
2023-05-08T00:30:09.651Z,8.23
2023-05-08T00:31:12.002Z,7.57
2023-05-08T00:32:14.124Z,7.85
2023-05-08T00:33:16.576Z,10.27
2023-05-08T00:34:18.696Z,8.05
2023-05-08T00:35:20.906Z,9.38
2023-05-08T00:36:23.019Z,7.13
2023-05-08T00:37:25.119Z,11.93
2023-05-08T00:38:27.296Z,8.88
2023-05-08T00:39:29.623Z,9.27
2023-05-08T00:40:31.796Z,8.65
2023-05-08T00:41:33.890Z,9.13
2023-05-08T00:42:36.032Z,6.78
2023-05-08T00:43:39.955Z,11.63
2023-05-08T00:44:42.168Z,7.70
2023-05-08T00:45:44.306Z,8.52
2023-05-08T00:46:46.757Z,8.90
2023-05-08T00:47:50.249Z,9.13
2023-05-08T00:48:52.431Z,8.05
2023-05-08T00:49:54.573Z,7.90
2023-05-08T00:50:56.855Z,7.68
2023-05-08T00:51:58.959Z,8.32
2023-05-08T00:53:03.158Z,8.15
2023-05-08T00:54:05.447Z,9.02
2023-05-08T00:55:07.953Z,9.73
2023-05-08T00:56:14.374Z,7.10
2023-05-08T00:57:16.860Z,7.80
2023-05-08T00:58:21.016Z,7.82
2023-05-08T00:59:24.240Z,8.35
2023-05-08T01:00:26.554Z,8.40
2023-05-08T01:01:29.087Z,9.88
2023-05-08T01:02:31.864Z,9.20
2023-05-08T01:03:35.934Z,8.70
2023-05-08T01:04:38.432Z,7.95
2023-05-08T01:05:41.078Z,10.27
2023-05-08T01:06:43.223Z,8.35
2023-05-08T01:07:45.712Z,9.65
2023-05-08T01:08:47.926Z,7.82
2023-05-08T01:09:50.045Z,9.32
2023-05-08T01:11:10.560Z,9.23
2023-05-08T01:12:21.304Z,9.10
2023-05-08T01:13:31.915Z,8.35
2023-05-08T01:14:52.836Z,7.63
2023-05-08T01:16:01.042Z,9.63
2023-05-08T01:17:12.640Z,7.43
2023-05-08T01:18:23.278Z,8.95
2023-05-08T01:19:50.276Z,10.05
2023-05-08T01:21:01.174Z,8.05
2023-05-08T01:22:17.415Z,9.65
2023-05-08T01:23:39.785Z,8.85
2023-05-08T01:25:14.241Z,8.27
2023-05-08T01:26:36.727Z,12.10
2023-05-08T01:27:57.764Z,9.85
2023-05-08T01:29:17.929Z,9.80
2023-05-08T01:30:46.175Z,9.60
2023-05-08T01:32:06.683Z,8.57
2023-05-08T01:33:14.568Z,8.02
2023-05-08T01:34:25.557Z,8.80
2023-05-08T01:35:30.555Z,8.52
2023-05-08T01:36:38.275Z,7.43
2023-05-08T01:37:40.535Z,8.27
2023-05-08T01:38:56.030Z,9.00
2023-05-08T01:40:11.809Z,9.27
2023-05-08T01:41:20.067Z,10.45
2023-05-08T01:42:49.400Z,7.85
2023-05-08T01:43:54.073Z,8.77
2023-05-08T01:46:09.907Z,8.82
2023-05-08T01:47:12.416Z,9.30
2023-05-08T01:48:20.026Z,9.93
2023-05-08T01:49:38.694Z,7.90
2023-05-08T01:50:46.890Z,8.70
2023-05-08T01:52:10.574Z,7.18
2023-05-08T01:53:35.314Z,9.95
2023-05-08T01:54:43.307Z,10.05
2023-05-08T01:55:47.414Z,8.40
2023-05-08T01:56:50.550Z,9.05
2023-05-08T01:57:56.555Z,7.82
2023-05-08T01:58:59.368Z,9.48
2023-05-08T02:00:03.841Z,9.10
2023-05-08T02:01:06.264Z,7.20
2023-05-08T02:02:09.648Z,8.70
2023-05-08T02:03:14.721Z,7.50
2023-05-08T02:04:17.411Z,7.95
2023-05-08T02:05:21.486Z,7.88
2023-05-08T02:06:24.046Z,8.13
2023-05-08T02:07:26.838Z,8.05
2023-05-08T02:08:30.067Z,7.38
2023-05-08T02:09:32.458Z,7.47
2023-05-08T02:10:34.888Z,8.85
2023-05-08T02:11:38.277Z,8.23
2023-05-08T02:12:41.082Z,8.05
2023-05-08T02:13:44.852Z,8.30
2023-05-08T02:14:47.967Z,8.48
2023-05-08T02:16:09.669Z,9.95
2023-05-08T02:17:12.703Z,9.70
2023-05-08T02:18:16.067Z,8.68
2023-05-08T02:19:19.908Z,10.73
2023-05-08T02:20:22.487Z,9.13
2023-05-08T02:21:24.699Z,7.90
2023-05-08T02:22:27.745Z,8.73
2023-05-08T02:23:30.023Z,8.45
2023-05-08T02:24:33.238Z,9.32
2023-05-08T02:25:35.820Z,8.30
2023-05-08T02:26:39.811Z,9.05
2023-05-08T02:27:45.711Z,10.00
2023-05-08T02:28:49.436Z,11.55
2023-05-08T02:29:52.096Z,9.30
2023-05-08T02:30:54.475Z,8.75
2023-05-08T02:31:57.586Z,10.68
2023-05-08T02:33:00.961Z,7.75
2023-05-08T02:34:04.325Z,6.95
2023-05-08T02:35:07.200Z,7.85
2023-05-08T02:36:11.216Z,8.75
2023-05-08T02:37:13.680Z,7.55
2023-05-08T02:38:15.966Z,9.18
2023-05-08T02:39:19.886Z,7.45
2023-05-08T02:40:23.591Z,8.35
2023-05-08T02:41:29.838Z,9.57
2023-05-08T02:42:32.128Z,8.23
2023-05-08T02:43:34.410Z,7.38
2023-05-08T02:44:36.520Z,9.90
2023-05-08T02:46:08.567Z,9.77
2023-05-08T02:47:26.298Z,7.88
2023-05-08T02:48:42.195Z,8.27
2023-05-08T02:49:49.134Z,8.18
2023-05-08T02:51:03.630Z,9.13
2023-05-08T02:52:22.616Z,10.02
2023-05-08T02:53:36.488Z,9.35
2023-05-08T02:54:45.108Z,10.25
2023-05-08T02:55:49.787Z,9.85
2023-05-08T02:58:30.681Z,7.72
2023-05-08T02:59:44.494Z,9.85
2023-05-08T03:00:59.593Z,11.40
2023-05-08T03:02:09.855Z,9.15
2023-05-08T03:03:27.448Z,9.07
2023-05-08T03:04:36.926Z,9.32
2023-05-08T03:05:40.039Z,13.93
2023-05-08T03:06:45.810Z,8.80
2023-05-08T03:07:51.347Z,12.30
2023-05-08T03:08:56.031Z,11.07
2023-05-08T03:11:06.413Z,8.80
2023-05-08T03:12:15.318Z,10.02
2023-05-08T03:13:19.279Z,8.02
2023-05-08T03:14:24.087Z,8.65
2023-05-08T03:15:28.041Z,9.98
2023-05-08T03:16:32.774Z,12.65
2023-05-08T03:18:43.333Z,11.77
2023-05-08T03:19:50.441Z,8.48
2023-05-08T03:20:54.774Z,11.38
2023-05-08T03:21:58.214Z,10.20
2023-05-08T03:23:00.540Z,8.20
2023-05-08T03:24:03.482Z,10.25
2023-05-08T03:25:06.868Z,10.63
2023-05-08T03:26:09.602Z,9.00
2023-05-08T03:27:12.194Z,8.15
2023-05-08T03:28:14.908Z,12.10
2023-05-08T03:29:18.713Z,11.75
2023-05-08T03:30:20.934Z,12.45
2023-05-08T03:31:23.642Z,8.82
2023-05-08T03:32:26.479Z,7.80
2023-05-08T03:33:29.139Z,8.48
2023-05-08T03:34:31.597Z,8.73
2023-05-08T03:35:39.613Z,8.32
2023-05-08T03:36:42.228Z,8.45
2023-05-08T03:37:44.332Z,9.27
2023-05-08T03:38:46.572Z,12.05
2023-05-08T03:39:48.774Z,9.35
2023-05-08T03:40:51.153Z,8.35
2023-05-08T03:41:53.464Z,10.85
2023-05-08T03:42:56.192Z,7.78
2023-05-08T03:43:58.727Z,8.40
2023-05-08T03:45:01.922Z,7.00
2023-05-08T03:46:07.242Z,6.72
2023-05-08T03:47:10.278Z,7.97
2023-05-08T03:48:14.187Z,9.27
2023-05-08T03:49:17.768Z,6.80
2023-05-08T03:50:20.237Z,7.05
2023-05-08T03:51:22.860Z,8.10
2023-05-08T03:52:25.159Z,9.63
2023-05-08T03:53:27.305Z,11.05
2023-05-08T03:54:30.415Z,6.85
2023-05-08T03:55:32.924Z,6.20
2023-05-08T03:56:35.159Z,8.55
2023-05-08T03:57:46.218Z,5.90
2023-05-08T04:00:06.790Z,6.22
2023-05-08T04:01:17.988Z,6.30
2023-05-08T04:02:31.073Z,7.70
2023-05-08T04:03:44.329Z,7.65
2023-05-08T04:04:48.103Z,7.18
2023-05-08T04:06:30.802Z,6.90
2023-05-08T04:07:39.609Z,6.05
2023-05-08T04:08:48.621Z,11.90
2023-05-08T04:09:59.575Z,6.85
2023-05-08T04:11:11.448Z,6.30
2023-05-08T04:12:39.034Z,8.00
2023-05-08T04:13:48.152Z,6.50
2023-05-08T04:14:56.804Z,6.18
2023-05-08T04:16:06.967Z,5.22
2023-05-08T04:17:10.187Z,8.10
2023-05-08T04:18:18.141Z,5.22
2023-05-08T04:19:34.125Z,7.03
2023-05-08T04:20:39.387Z,8.50
2023-05-08T04:21:43.416Z,6.82
2023-05-08T04:22:46.815Z,6.78
2023-05-08T04:23:51.084Z,6.22
2023-05-08T04:24:56.279Z,6.28
2023-05-08T04:26:00.046Z,5.15
2023-05-08T04:27:02.937Z,6.82
2023-05-08T04:28:05.590Z,4.85
2023-05-08T04:29:07.912Z,5.05
2023-05-08T04:30:10.647Z,3.95
2023-05-08T04:31:15.588Z,5.25
2023-05-08T04:32:17.951Z,7.05
2023-05-08T04:33:20.188Z,5.00
2023-05-08T04:34:23.215Z,4.85
2023-05-08T04:35:25.884Z,6.88
2023-05-08T04:36:31.053Z,4.60
2023-05-08T04:37:33.223Z,5.93
2023-05-08T04:38:38.149Z,4.57
2023-05-08T04:39:41.919Z,9.05
2023-05-08T04:40:45.477Z,5.63
2023-05-08T04:41:48.825Z,5.80
2023-05-08T04:42:51.055Z,4.70
2023-05-08T04:43:53.891Z,5.63
2023-05-08T04:44:56.027Z,5.72
2023-05-08T04:45:58.205Z,5.35
2023-05-08T04:47:00.277Z,5.72
2023-05-08T04:48:02.377Z,5.15
2023-05-08T04:49:04.571Z,5.65
2023-05-08T04:50:06.972Z,4.25
2023-05-08T04:51:09.035Z,5.32
2023-05-08T04:52:11.262Z,7.13
2023-05-08T04:53:13.525Z,5.05
2023-05-08T04:54:15.655Z,4.57
2023-05-08T04:55:17.843Z,5.05
2023-05-08T04:56:19.954Z,4.78
2023-05-08T04:57:22.046Z,4.97
2023-05-08T04:58:24.128Z,4.38
2023-05-08T04:59:26.355Z,3.92
2023-05-08T05:00:28.464Z,4.85
2023-05-08T05:01:31.005Z,4.43
2023-05-08T05:02:33.174Z,4.22
2023-05-08T05:03:35.497Z,8.05
2023-05-08T05:04:37.679Z,5.43
2023-05-08T05:05:39.821Z,5.60
2023-05-08T05:06:41.994Z,4.38
2023-05-08T05:07:44.106Z,4.45
2023-05-08T05:08:46.187Z,5.00
2023-05-08T05:09:48.321Z,5.68
2023-05-08T05:10:50.442Z,4.43
2023-05-08T05:11:52.662Z,4.53
2023-05-08T05:12:55.006Z,4.25
2023-05-08T05:13:57.208Z,3.92
2023-05-08T05:15:00.609Z,5.97
2023-05-08T05:16:02.757Z,6.20
2023-05-08T05:17:04.938Z,4.40
2023-05-08T05:18:07.040Z,4.25
2023-05-08T05:19:09.207Z,5.25
2023-05-08T05:20:11.847Z,4.60
2023-05-08T05:21:14.129Z,4.50
2023-05-08T05:22:16.324Z,6.03
2023-05-08T05:23:18.463Z,8.05
2023-05-08T05:24:20.607Z,6.72
2023-05-08T05:25:22.714Z,6.75
2023-05-08T05:26:24.856Z,4.50
2023-05-08T05:27:27.187Z,4.95
2023-05-08T05:28:29.280Z,5.30
2023-05-08T05:29:31.421Z,5.68
2023-05-08T05:30:33.614Z,5.35
2023-05-08T05:31:35.803Z,5.38
2023-05-08T05:32:37.959Z,5.65
2023-05-08T05:33:40.585Z,5.53
2023-05-08T05:34:42.708Z,4.25
2023-05-08T05:35:44.828Z,6.80
2023-05-08T05:36:47.257Z,4.18
2023-05-08T05:37:49.427Z,6.50
2023-05-08T05:38:51.531Z,4.40
2023-05-08T05:39:53.604Z,4.35
2023-05-08T05:40:55.749Z,4.07
2023-05-08T05:41:57.857Z,3.88
2023-05-08T05:42:59.969Z,5.00
2023-05-08T05:44:02.163Z,4.40
2023-05-08T05:45:04.592Z,5.50
2023-05-08T05:46:07.792Z,5.45
2023-05-08T05:47:12.649Z,3.85
2023-05-08T05:48:15.008Z,4.68
2023-05-08T05:49:17.173Z,4.65
2023-05-08T05:50:19.917Z,3.75
2023-05-08T05:51:22.395Z,4.88
2023-05-08T05:52:24.569Z,4.28
2023-05-08T05:53:26.730Z,5.50
2023-05-08T05:54:28.806Z,4.13
2023-05-08T05:55:31.426Z,4.85
2023-05-08T05:56:37.312Z,6.25
2023-05-08T05:57:39.481Z,5.55
2023-05-08T05:58:44.923Z,5.00
2023-05-08T05:59:47.209Z,5.78
2023-05-08T06:00:49.540Z,5.78
2023-05-08T06:01:51.861Z,3.20
2023-05-08T06:02:54.122Z,3.67
2023-05-08T06:03:56.487Z,6.20
2023-05-08T06:04:59.360Z,4.15
2023-05-08T06:06:01.484Z,4.25
2023-05-08T06:07:03.621Z,4.68
2023-05-08T06:08:05.856Z,5.18
2023-05-08T06:09:08.039Z,4.72
2023-05-08T06:10:11.086Z,3.42
2023-05-08T06:11:13.252Z,5.32
2023-05-08T06:12:15.465Z,3.97
2023-05-08T06:13:17.679Z,5.80
2023-05-08T06:14:20.423Z,4.07
2023-05-08T06:15:22.621Z,3.50
2023-05-08T06:16:25.052Z,4.38
2023-05-08T06:17:27.296Z,4.70
2023-05-08T06:18:29.488Z,7.38
2023-05-08T06:19:31.648Z,7.30
2023-05-08T06:20:33.771Z,3.42
2023-05-08T06:21:35.924Z,4.45
2023-05-08T06:22:39.353Z,3.95
2023-05-08T06:23:42.751Z,4.13
2023-05-08T06:24:45.265Z,7.32
2023-05-08T06:25:47.323Z,5.70
2023-05-08T06:26:49.434Z,4.78
2023-05-08T06:27:51.577Z,3.63
2023-05-08T06:28:53.676Z,4.20
2023-05-08T06:30:14.112Z,4.40
2023-05-08T06:31:16.279Z,4.28
2023-05-08T06:32:19.272Z,5.00
2023-05-08T06:33:21.499Z,6.85
2023-05-08T06:34:23.610Z,4.90
2023-05-08T06:35:25.781Z,3.58
2023-05-08T06:36:27.870Z,3.38
2023-05-08T06:37:29.985Z,3.15
2023-05-08T06:38:32.284Z,4.45
2023-05-08T06:39:34.468Z,4.43
2023-05-08T06:40:36.581Z,4.43
2023-05-08T06:41:38.751Z,4.80
2023-05-08T06:42:41.371Z,4.20
2023-05-08T06:43:43.515Z,3.53
2023-05-08T06:44:45.630Z,3.60
2023-05-08T06:45:47.902Z,5.22
2023-05-08T06:46:50.022Z,5.35
2023-05-08T06:47:52.232Z,6.18
2023-05-08T06:48:54.413Z,6.20
2023-05-08T06:49:56.663Z,3.35
2023-05-08T06:50:58.796Z,5.18
2023-05-08T06:52:01.262Z,4.25
2023-05-08T06:53:03.391Z,3.63
2023-05-08T06:54:08.726Z,5.78
2023-05-08T06:55:11.033Z,6.60
2023-05-08T06:56:13.255Z,4.80
2023-05-08T06:57:16.256Z,4.95
2023-05-08T06:58:18.399Z,4.75
2023-05-08T06:59:21.441Z,2.85
2023-05-08T07:00:23.545Z,2.90
2023-05-08T07:01:25.770Z,10.13
2023-05-08T07:02:27.965Z,3.45
2023-05-08T07:03:30.122Z,3.15
2023-05-08T07:04:33.031Z,3.22
2023-05-08T07:05:35.206Z,8.77
2023-05-08T07:06:37.333Z,5.32
2023-05-08T07:07:39.477Z,9.32
2023-05-08T07:08:41.694Z,3.10
2023-05-08T07:09:43.824Z,4.03
2023-05-08T07:10:46.100Z,4.63
2023-05-08T07:11:48.335Z,4.90
2023-05-08T07:12:50.751Z,2.85
2023-05-08T07:13:52.925Z,5.38
2023-05-08T07:14:55.917Z,3.38
2023-05-08T07:15:59.455Z,5.30
2023-05-08T07:17:07.699Z,3.22
2023-05-08T07:18:09.922Z,3.75
2023-05-08T07:19:12.081Z,4.15
2023-05-08T07:20:14.299Z,3.58
2023-05-08T07:21:18.141Z,3.13
2023-05-08T07:22:21.180Z,4.68
2023-05-08T07:23:23.349Z,3.33
2023-05-08T07:24:25.406Z,3.95
2023-05-08T07:25:27.551Z,3.53
2023-05-08T07:26:29.683Z,3.70
2023-05-08T07:27:31.875Z,3.15
2023-05-08T07:28:34.149Z,4.00
2023-05-08T07:29:36.426Z,4.82
2023-05-08T07:30:38.478Z,3.50
2023-05-08T07:31:41.475Z,5.35
2023-05-08T07:32:43.800Z,3.55
2023-05-08T07:33:47.017Z,3.83
2023-05-08T07:34:49.157Z,4.13
2023-05-08T07:35:51.506Z,3.08
2023-05-08T07:36:53.629Z,4.82
2023-05-08T07:37:55.822Z,6.75
2023-05-08T07:38:57.909Z,3.78
2023-05-08T07:39:59.990Z,2.63
2023-05-08T07:41:02.270Z,3.40
2023-05-08T07:42:04.439Z,3.25
2023-05-08T07:43:06.554Z,5.03
2023-05-08T07:44:08.822Z,2.70
2023-05-08T07:45:12.389Z,3.03
2023-05-08T07:46:18.213Z,2.85
2023-05-08T07:47:20.465Z,2.95
2023-05-08T07:48:22.668Z,4.47
2023-05-08T07:49:25.068Z,3.33
2023-05-08T07:50:27.228Z,3.00
2023-05-08T07:51:29.513Z,2.92
2023-05-08T07:52:31.900Z,2.95
2023-05-08T07:53:34.098Z,4.20
2023-05-08T07:54:36.167Z,3.05
2023-05-08T07:55:38.363Z,4.82
2023-05-08T07:56:40.491Z,4.53
2023-05-08T07:57:43.503Z,3.45
2023-05-08T07:58:46.111Z,4.22
2023-05-08T07:59:48.272Z,5.57
2023-05-08T08:00:50.346Z,4.25
2023-05-08T08:01:52.664Z,4.15
2023-05-08T08:02:54.952Z,4.55
2023-05-08T08:03:57.500Z,3.78
2023-05-08T08:04:59.690Z,3.88
2023-05-08T08:06:01.807Z,4.13
2023-05-08T08:07:03.969Z,5.70
2023-05-08T08:08:06.121Z,5.15
2023-05-08T08:09:08.254Z,4.13
2023-05-08T08:10:19.404Z,3.72
2023-05-08T08:11:21.767Z,3.78
2023-05-08T08:12:24.005Z,3.67
2023-05-08T08:13:26.289Z,4.55
2023-05-08T08:14:28.803Z,3.55
2023-05-08T08:15:31.437Z,3.42
2023-05-08T08:16:34.186Z,3.60
2023-05-08T08:17:36.735Z,4.18
2023-05-08T08:18:42.584Z,4.80
2023-05-08T08:19:45.087Z,9.45
2023-05-08T08:20:47.531Z,7.40
2023-05-08T08:21:49.702Z,3.78
2023-05-08T08:22:51.952Z,3.75
2023-05-08T08:23:54.051Z,5.07
2023-05-08T08:24:56.701Z,5.93
2023-05-08T08:25:58.863Z,3.72
2023-05-08T08:27:00.973Z,3.50
2023-05-08T08:28:03.099Z,7.82
2023-05-08T08:29:05.310Z,3.72
2023-05-08T08:30:16.958Z,4.53
2023-05-08T08:31:20.712Z,4.95
2023-05-08T08:32:22.855Z,3.78
2023-05-08T08:33:24.952Z,3.13
2023-05-08T08:34:27.090Z,4.68
2023-05-08T08:35:30.253Z,3.22
2023-05-08T08:36:32.729Z,5.10
2023-05-08T08:37:34.909Z,2.97
2023-05-08T08:38:37.566Z,4.68
2023-05-08T08:39:39.719Z,3.97
2023-05-08T08:40:42.595Z,3.55
2023-05-08T08:41:44.750Z,5.18
2023-05-08T08:42:47.354Z,2.78
2023-05-08T08:43:49.472Z,3.83
2023-05-08T08:44:51.658Z,3.45
2023-05-08T08:45:53.829Z,3.67
2023-05-08T08:46:58.398Z,3.38
2023-05-08T08:48:02.305Z,2.70
2023-05-08T08:49:05.118Z,3.95
2023-05-08T08:50:10.388Z,2.95
2023-05-08T08:51:42.394Z,2.72
2023-05-08T08:53:08.808Z,2.15
2023-05-08T08:54:14.868Z,5.50
2023-05-08T08:55:18.360Z,2.63
2023-05-08T08:56:22.835Z,3.47
2023-05-08T08:57:26.740Z,3.50
2023-05-08T08:58:33.416Z,4.80
2023-05-08T08:59:38.262Z,13.23
2023-05-08T09:00:40.750Z,5.10
2023-05-08T09:01:45.689Z,12.30
2023-05-08T09:02:48.094Z,3.08
2023-05-08T09:03:50.701Z,3.70
2023-05-08T09:04:53.166Z,3.50
2023-05-08T09:06:01.082Z,3.65
2023-05-08T09:07:05.416Z,3.92
2023-05-08T09:08:07.792Z,4.72
2023-05-08T09:09:12.635Z,4.78
2023-05-08T09:10:15.538Z,1.85
2023-05-08T09:11:17.664Z,2.03
2023-05-08T09:12:19.750Z,6.50
2023-05-08T09:13:22.783Z,2.83
2023-05-08T09:14:26.719Z,2.38
2023-05-08T09:15:28.844Z,2.30
2023-05-08T09:16:31.160Z,1.90
2023-05-08T09:17:33.285Z,1.73
2023-05-08T09:18:35.478Z,3.35
2023-05-08T09:19:38.127Z,2.72
2023-05-08T09:20:41.359Z,2.63
2023-05-08T09:21:43.612Z,2.03
2023-05-08T09:22:46.130Z,2.97
2023-05-08T09:24:02.426Z,1.90
2023-05-08T09:25:04.935Z,3.25
2023-05-08T09:26:07.135Z,2.78
2023-05-08T09:27:21.316Z,1.30
2023-05-08T09:28:24.784Z,2.38
2023-05-08T09:29:26.865Z,1.77
2023-05-08T09:30:29.026Z,7.00
2023-05-08T09:31:39.950Z,3.85
2023-05-08T09:32:43.860Z,2.58
2023-05-08T09:33:46.063Z,2.42
2023-05-08T09:34:52.689Z,2.10
2023-05-08T09:35:55.834Z,2.20
2023-05-08T09:37:09.875Z,1.95
2023-05-08T09:38:30.202Z,1.48
2023-05-08T09:39:32.338Z,4.82
2023-05-08T09:40:34.590Z,1.23
2023-05-08T09:41:36.688Z,1.90
2023-05-08T09:42:38.997Z,3.30
2023-05-08T09:43:42.170Z,3.40
2023-05-08T09:44:46.053Z,2.67
2023-05-08T09:45:48.178Z,2.67
2023-05-08T09:46:50.752Z,3.15
2023-05-08T09:47:52.909Z,3.67
2023-05-08T09:48:57.467Z,5.10
2023-05-08T09:50:01.335Z,3.50
2023-05-08T09:51:07.206Z,2.97
2023-05-08T09:52:15.763Z,3.55
2023-05-08T09:53:17.953Z,2.95
2023-05-08T09:54:20.076Z,4.90
2023-05-08T09:55:22.216Z,2.10
2023-05-08T09:56:40.388Z,2.22
2023-05-08T09:57:54.050Z,4.88
2023-05-08T09:58:56.211Z,2.75
2023-05-08T10:00:10.072Z,3.55
2023-05-08T10:01:31.026Z,3.75
2023-05-08T10:02:33.438Z,3.00
2023-05-08T10:03:50.587Z,1.85
2023-05-08T10:05:55.036Z,5.72
2023-05-08T10:07:00.389Z,3.17
2023-05-08T10:08:19.876Z,1.85
2023-05-08T10:09:21.968Z,1.83
2023-05-08T10:10:28.849Z,2.03
2023-05-08T10:11:31.445Z,2.17
2023-05-08T10:12:33.941Z,2.50
2023-05-08T10:13:36.089Z,2.53
2023-05-08T10:14:38.247Z,2.88
2023-05-08T10:15:42.838Z,2.35
2023-05-08T10:16:46.564Z,2.30
2023-05-08T10:17:54.951Z,1.60
2023-05-08T10:19:02.101Z,1.92
2023-05-08T10:20:07.831Z,2.03
2023-05-08T10:21:10.046Z,3.15
2023-05-08T10:22:12.815Z,3.00
2023-05-08T10:23:17.428Z,3.30
2023-05-08T10:24:21.617Z,1.92
2023-05-08T10:25:24.516Z,1.73
2023-05-08T10:26:31.838Z,2.38
2023-05-08T10:27:41.629Z,1.58
2023-05-08T10:28:50.431Z,1.90
2023-05-08T10:29:54.670Z,2.35
2023-05-08T10:31:03.680Z,2.20
2023-05-08T10:32:11.368Z,2.35
2023-05-08T10:33:15.987Z,3.50
2023-05-08T10:34:22.858Z,2.88
2023-05-08T10:35:25.409Z,3.33
2023-05-08T10:36:30.322Z,2.15
2023-05-08T10:37:33.637Z,2.10
2023-05-08T10:38:37.328Z,2.33
2023-05-08T10:39:40.733Z,2.63
2023-05-08T10:40:43.063Z,2.08
2023-05-08T10:41:45.173Z,3.20
2023-05-08T10:42:47.935Z,1.92
2023-05-08T10:43:50.524Z,1.48
2023-05-08T10:44:53.020Z,2.00
2023-05-08T10:45:57.097Z,6.57
2023-05-08T10:47:11.911Z,1.95
2023-05-08T10:48:40.433Z,2.10
2023-05-08T10:50:06.135Z,1.75
2023-05-08T10:51:22.231Z,2.67
2023-05-08T10:52:30.357Z,4.00
2023-05-08T10:53:51.441Z,2.25
2023-05-08T10:55:02.288Z,2.20
2023-05-08T10:56:04.760Z,2.20
2023-05-08T10:57:09.642Z,1.67
2023-05-08T10:58:13.004Z,2.38
2023-05-08T10:59:19.155Z,3.88
2023-05-08T11:00:22.722Z,3.65
2023-05-08T11:01:26.339Z,4.15
2023-05-08T11:02:30.378Z,1.85
2023-05-08T11:03:33.883Z,1.88
2023-05-08T11:04:36.613Z,3.88
2023-05-08T11:05:48.646Z,3.13
2023-05-08T11:06:53.276Z,2.92
2023-05-08T11:07:59.295Z,1.92
2023-05-08T11:09:01.657Z,2.10
2023-05-08T11:10:07.985Z,2.05
2023-05-08T11:11:26.937Z,1.98
2023-05-08T11:12:33.945Z,2.60
2023-05-08T11:13:36.654Z,2.85
2023-05-08T11:14:41.875Z,3.47
2023-05-08T11:15:50.405Z,2.25
2023-05-08T11:16:55.242Z,2.70
2023-05-08T11:17:57.636Z,4.10
2023-05-08T11:19:18.515Z,1.80
2023-05-08T11:20:23.657Z,4.28
2023-05-08T11:21:26.595Z,1.70
2023-05-08T11:22:33.221Z,2.20
2023-05-08T11:23:36.709Z,1.63
2023-05-08T11:24:39.874Z,2.47
2023-05-08T11:25:43.559Z,2.33
2023-05-08T11:26:48.936Z,2.58
2023-05-08T11:27:51.213Z,1.88
2023-05-08T11:28:53.327Z,3.10
2023-05-08T11:30:35.129Z,2.45
2023-05-08T11:31:49.966Z,3.35
2023-05-08T11:33:04.710Z,2.22
2023-05-08T11:34:42.355Z,17.70
2023-05-08T11:36:03.413Z,3.42
2023-05-08T11:37:09.373Z,2.90
2023-05-08T11:38:20.079Z,1.52
2023-05-08T11:40:47.241Z,1.75
2023-05-08T11:41:49.396Z,3.08
2023-05-08T11:42:51.514Z,3.83
2023-05-08T11:44:02.522Z,2.35
2023-05-08T11:45:07.816Z,2.83
2023-05-08T11:46:16.812Z,4.88
2023-05-08T11:47:20.413Z,4.10
2023-05-08T11:48:22.785Z,6.25
2023-05-08T11:49:29.586Z,4.35
2023-05-08T11:50:32.011Z,1.40
2023-05-08T11:51:34.237Z,4.20
2023-05-08T11:52:37.584Z,7.38
2023-05-08T11:53:40.030Z,2.35
2023-05-08T11:54:42.494Z,3.53
2023-05-08T11:55:48.490Z,4.18
2023-05-08T11:56:52.009Z,3.60
2023-05-08T11:57:56.889Z,4.05
2023-05-08T11:59:05.783Z,3.90
2023-05-08T12:00:09.966Z,6.97
2023-05-08T12:01:17.542Z,4.50
2023-05-08T12:02:20.043Z,5.68
2023-05-08T12:03:25.090Z,6.90
2023-05-08T12:04:27.504Z,2.40
2023-05-08T12:05:29.784Z,3.22
2023-05-08T12:06:32.844Z,2.97
2023-05-08T12:07:47.472Z,4.07
2023-05-08T12:08:49.598Z,3.05
2023-05-08T12:09:51.784Z,1.80
2023-05-08T12:10:56.623Z,3.55
2023-05-08T12:11:59.071Z,4.72
2023-05-08T12:13:01.377Z,7.03
2023-05-08T12:14:03.577Z,3.88
2023-05-08T12:15:07.794Z,4.28
2023-05-08T12:16:11.208Z,2.72
2023-05-08T12:17:17.844Z,2.20
2023-05-08T12:18:21.472Z,2.28
2023-05-08T12:19:23.596Z,3.47
2023-05-08T12:20:25.789Z,2.95
2023-05-08T12:21:27.897Z,2.22
2023-05-08T12:22:30.011Z,1.75
2023-05-08T12:23:33.078Z,2.00
2023-05-08T12:24:35.250Z,2.60
2023-05-08T12:25:40.717Z,3.95
2023-05-08T12:26:42.878Z,4.07
2023-05-08T12:27:45.447Z,5.93
2023-05-08T12:28:48.296Z,4.50
2023-05-08T12:29:50.468Z,2.30
2023-05-08T12:30:52.622Z,6.75
2023-05-08T12:31:54.896Z,7.72
2023-05-08T12:32:57.337Z,8.73
2023-05-08T12:33:59.521Z,5.43
2023-05-08T12:35:01.810Z,2.80
2023-05-08T12:36:05.644Z,4.88
2023-05-08T12:37:07.856Z,3.40
2023-05-08T12:38:11.960Z,4.18
2023-05-08T12:39:18.898Z,1.73
2023-05-08T12:40:26.645Z,6.30
2023-05-08T12:41:28.787Z,7.88
2023-05-08T12:42:43.883Z,2.30
2023-05-08T12:43:46.782Z,3.85
2023-05-08T12:44:52.564Z,2.45
2023-05-08T12:45:54.782Z,1.65
2023-05-08T12:46:57.741Z,1.70
2023-05-08T12:48:04.862Z,2.40
2023-05-08T12:49:10.461Z,2.30
2023-05-08T12:50:15.042Z,3.83
2023-05-08T12:51:17.382Z,2.08
2023-05-08T12:52:19.530Z,7.20
2023-05-08T12:53:22.064Z,2.50
2023-05-08T12:54:38.509Z,4.30
2023-05-08T12:55:52.800Z,5.30
2023-05-08T12:56:55.075Z,2.90
2023-05-08T12:58:15.395Z,2.30
2023-05-08T12:59:28.714Z,3.22
2023-05-08T13:00:39.223Z,7.43
2023-05-08T13:01:41.400Z,2.88
2023-05-08T13:02:54.198Z,2.80
2023-05-08T13:04:02.328Z,4.57
2023-05-08T13:05:05.858Z,2.95
2023-05-08T13:06:20.742Z,3.30
2023-05-08T13:07:22.875Z,5.15
2023-05-08T13:08:34.120Z,7.85
2023-05-08T13:09:36.578Z,2.97
2023-05-08T13:10:50.540Z,3.83
2023-05-08T13:11:52.621Z,3.88
2023-05-08T13:12:54.733Z,3.10
2023-05-08T13:13:56.921Z,3.17
2023-05-08T13:14:59.142Z,3.30
2023-05-08T13:16:05.980Z,4.05
2023-05-08T13:17:08.302Z,3.38
2023-05-08T13:18:10.560Z,5.53
2023-05-08T13:19:12.843Z,13.60
2023-05-08T13:20:15.083Z,3.40
2023-05-08T13:21:17.419Z,2.42
2023-05-08T13:22:23.125Z,2.15
2023-05-08T13:23:25.487Z,3.13
2023-05-08T13:24:27.551Z,3.42
2023-05-08T13:25:32.870Z,2.50
2023-05-08T13:26:34.981Z,2.60
2023-05-08T13:27:37.153Z,2.15
2023-05-08T13:28:39.245Z,3.75
2023-05-08T13:29:41.336Z,2.97
2023-05-08T13:30:43.525Z,3.03
2023-05-08T13:31:45.725Z,3.47
2023-05-08T13:32:49.318Z,4.93
2023-05-08T13:33:51.430Z,3.00
2023-05-08T13:34:57.056Z,4.88
2023-05-08T13:36:00.884Z,3.70
2023-05-08T13:37:03.057Z,5.13
2023-05-08T13:38:06.094Z,4.38
2023-05-08T13:39:08.366Z,4.28
2023-05-08T13:40:11.335Z,8.98
2023-05-08T13:41:13.530Z,5.40
2023-05-08T13:42:15.743Z,3.33
2023-05-08T13:43:17.927Z,3.70
2023-05-08T13:44:20.060Z,4.15
2023-05-08T13:45:22.228Z,2.83
2023-05-08T13:46:24.978Z,4.35
2023-05-08T13:47:27.618Z,3.25
2023-05-08T13:48:29.728Z,2.63
2023-05-08T13:49:31.807Z,2.38
2023-05-08T13:50:33.884Z,2.50
2023-05-08T13:51:35.978Z,2.88
2023-05-08T13:52:38.971Z,2.33
2023-05-08T13:53:41.055Z,4.05
2023-05-08T13:54:43.206Z,3.08
2023-05-08T13:55:45.528Z,7.35
2023-05-08T13:56:48.595Z,5.80
2023-05-08T13:57:51.157Z,3.20
2023-05-08T13:58:53.317Z,4.55
2023-05-08T13:59:55.424Z,2.28
2023-05-08T14:00:57.588Z,2.33
2023-05-08T14:02:00.600Z,2.53
2023-05-08T14:03:03.240Z,5.50
2023-05-08T14:04:05.566Z,5.45
2023-05-08T14:05:08.883Z,2.63
2023-05-08T14:06:11.019Z,3.88
2023-05-08T14:07:13.117Z,2.50
2023-05-08T14:08:15.233Z,3.47
2023-05-08T14:09:17.340Z,4.68
2023-05-08T14:10:20.300Z,2.45
2023-05-08T14:11:22.414Z,2.10
2023-05-08T14:12:24.536Z,2.80
2023-05-08T14:13:26.772Z,3.13
2023-05-08T14:14:28.892Z,5.03
2023-05-08T14:15:36.967Z,4.15
2023-05-08T14:16:39.691Z,4.10
2023-05-08T14:17:42.472Z,2.65
2023-05-08T14:18:44.680Z,3.70
2023-05-08T14:19:46.792Z,5.50
2023-05-08T14:20:56.599Z,3.95
2023-05-08T14:21:59.739Z,2.15
2023-05-08T14:23:01.825Z,2.40
2023-05-08T14:24:04.188Z,2.38
2023-05-08T14:25:07.213Z,3.03
2023-05-08T14:26:09.347Z,3.80
2023-05-08T14:27:11.768Z,4.20
2023-05-08T14:28:13.866Z,3.75
2023-05-08T14:29:16.515Z,2.80